Time;durP1;ratioP1;P1;durP2;ratioP2;P2;SDS_P1;SDS_P2;PMS_P1;PMS_P2;Temp;Humidity;BMP_temperature;BMP_pressure;BME280_temperature;BME280_humidity;BME280_pressure;Samples;Min_cycle;Max_cycle;Signal;HPM_P1;HPM_P2
2021/04/03 00:13:51;;;;;;;1.70;0.73;;;;;;;7.83;49.05;101883.94;4839849;29;20079;-78
2021/04/03 00:16:19;;;;;;;0.50;0.50;;;;;;;7.84;49.79;101896.50;4822799;29;20049;-82
2021/04/03 00:18:45;;;;;;;1.27;0.73;;;;;;;7.72;50.10;101876.41;4828751;29;20225;-74
2021/04/03 00:21:15;;;;;;;0.68;0.60;;;;;;;7.68;50.69;101881.44;4842497;29;20531;-76
2021/04/03 00:23:42;;;;;;;1.27;0.90;;;;;;;7.67;51.03;101878.94;4837658;29;20155;-77
2021/04/03 00:26:10;;;;;;;2.17;0.80;;;;;;;7.62;50.66;101879.56;4828981;29;20191;-77
2021/04/03 00:28:37;;;;;;;2.55;0.88;;;;;;;7.63;50.82;101894.00;4878536;29;20060;-78
2021/04/03 00:31:02;;;;;;;2.95;0.77;;;;;;;7.56;51.28;101877.66;4898040;29;20073;-76
2021/04/03 00:33:28;;;;;;;0.70;0.70;;;;;;;7.56;51.13;101888.56;4883262;29;20033;-74
2021/04/03 00:35:53;;;;;;;0.80;0.60;;;;;;;7.42;50.69;101882.28;4879845;29;20036;-74
2021/04/03 00:38:19;;;;;;;0.77;0.52;;;;;;;7.43;51.20;101900.31;4881335;29;20043;-76
2021/04/03 00:43:42;;;;;;;1.80;0.38;;;;;;;7.19;51.39;101884.59;4894475;29;20024;-77
2021/04/03 00:46:13;;;;;;;0.28;0.28;;;;;;;7.21;51.33;101890.66;4862707;29;20478;-76
2021/04/03 00:48:39;;;;;;;0.47;0.47;;;;;;;7.05;51.54;101881.81;4880141;29;20028;-75
2021/04/03 00:51:05;;;;;;;0.52;0.30;;;;;;;6.98;52.19;101881.84;4875149;29;20047;-74
2021/04/03 00:53:31;;;;;;;2.80;1.08;;;;;;;7.04;51.96;101901.06;4899250;29;20112;-74
2021/04/03 00:56:04;;;;;;;1.00;0.70;;;;;;;6.93;52.41;101883.50;4888633;29;20446;-74
2021/04/03 00:58:33;;;;;;;1.13;0.57;;;;;;;6.87;52.53;101873.44;4879021;29;20120;-73
2021/04/03 01:01:05;;;;;;;2.03;0.80;;;;;;;6.82;53.04;101893.09;4857924;29;20020;-75
2021/04/03 01:03:34;;;;;;;0.50;0.50;;;;;;;6.76;52.98;101889.31;4874430;29;20032;-74
2021/04/03 01:06:08;;;;;;;0.52;0.50;;;;;;;6.67;52.58;101879.66;4873234;29;20032;-75
2021/04/03 01:08:34;;;;;;;5.70;0.93;;;;;;;6.61;53.29;101877.75;4882637;29;20032;-76
2021/04/03 01:11:01;;;;;;;1.52;0.85;;;;;;;6.57;53.84;101880.06;4890885;29;20054;-77
2021/04/03 01:13:45;;;;;;;1.83;0.70;;;;;;;6.62;53.81;101887.59;4865804;29;20051;-75
2021/04/03 01:16:35;;;;;;;1.77;1.10;;;;;;;6.58;54.44;101873.56;4887915;29;20049;-75
2021/04/03 01:19:37;;;;;;;5.63;1.27;;;;;;;6.50;53.83;101878.34;4894316;29;20033;-75
2021/04/03 01:22:22;;;;;;;3.35;0.70;;;;;;;6.55;54.64;101892.16;4890106;29;20107;-77
2021/04/03 01:25:14;;;;;;;3.20;2.00;;;;;;;6.51;55.48;101885.44;4874525;29;20041;-75
2021/04/03 01:28:07;;;;;;;3.20;1.33;;;;;;;6.40;55.13;101887.72;4887704;29;20038;-75
2021/04/03 01:30:34;;;;;;;1.73;1.52;;;;;;;6.30;55.37;101884.53;4883258;29;20383;-76
2021/04/03 01:33:08;;;;;;;1.00;0.73;;;;;;;6.21;55.86;101875.72;4889322;29;20033;-74
2021/04/03 01:35:43;;;;;;;3.47;1.20;;;;;;;6.20;56.34;101875.91;4897496;29;20115;-73
2021/04/03 01:38:18;;;;;;;5.75;1.65;;;;;;;6.23;57.66;101889.09;4885462;29;20036;-73
2021/04/03 01:40:50;;;;;;;2.25;1.60;;;;;;;6.26;57.48;101897.69;4892897;29;20036;-73
2021/04/03 01:43:25;;;;;;;2.58;1.92;;;;;;;6.22;57.91;101890.13;4904955;29;20030;-73
2021/04/03 01:45:54;;;;;;;2.88;1.77;;;;;;;6.25;58.51;101892.44;4877558;29;20055;-73
2021/04/03 01:48:20;;;;;;;5.97;1.55;;;;;;;6.23;58.13;101894.53;4874239;29;20146;-73
2021/04/03 01:50:55;;;;;;;4.65;1.90;;;;;;;6.15;58.43;101886.53;4875654;29;20371;-74
2021/04/03 01:53:22;;;;;;;2.70;1.17;;;;;;;6.13;58.28;101878.59;4887798;29;20036;-75
2021/04/03 01:55:49;;;;;;;8.95;1.60;;;;;;;6.10;58.30;101879.84;4877185;29;20028;-74
2021/04/03 01:58:16;;;;;;;2.13;1.55;;;;;;;6.07;58.26;101869.34;4886295;29;20036;-74
2021/04/03 02:00:42;;;;;;;7.45;1.15;;;;;;;6.03;58.57;101872.69;4883785;29;20064;-75
2021/04/03 02:03:12;;;;;;;7.72;1.83;;;;;;;6.01;59.07;101867.44;4882779;29;20025;-74
2021/04/03 02:05:40;;;;;;;2.28;1.38;;;;;;;5.95;58.88;101854.66;4888433;29;20037;-72
2021/04/03 02:08:07;;;;;;;8.27;2.10;;;;;;;5.99;59.71;101871.44;4870114;29;20118;-74
2021/04/03 02:10:33;;;;;;;11.82;1.88;;;;;;;6.07;59.57;101880.22;4874896;29;20037;-75
2021/04/03 02:13:05;;;;;;;8.63;2.05;;;;;;;6.01;59.12;101881.03;4880073;29;20105;-74
2021/04/03 02:15:32;;;;;;;3.40;1.65;;;;;;;5.83;59.31;101867.13;4889940;29;20545;-74
2021/04/03 02:18:07;;;;;;;3.03;1.80;;;;;;;5.77;60.18;101869.56;4872934;29;20052;-76
2021/04/03 02:20:33;;;;;;;2.65;1.55;;;;;;;5.65;60.01;101868.47;4890273;29;20036;-74
2021/04/03 02:22:59;;;;;;;4.38;1.85;;;;;;;5.57;60.63;101868.59;4873428;29;20025;-74
2021/04/03 02:25:25;;;;;;;2.25;1.45;;;;;;;5.55;61.25;101865.25;4868817;29;20128;-74
2021/04/03 02:27:51;;;;;;;4.05;2.28;;;;;;;5.55;61.45;101881.53;4876500;29;20108;-74
2021/04/03 02:30:23;;;;;;;7.00;2.20;;;;;;;5.48;61.60;101886.06;4896593;29;20028;-72
2021/04/03 02:32:53;;;;;;;4.18;2.58;;;;;;;5.40;62.00;101878.91;4888581;29;20377;-73
2021/04/03 02:35:20;;;;;;;8.40;2.47;;;;;;;5.34;62.35;101875.09;4896461;29;20032;-73
2021/04/03 02:37:56;;;;;;;6.63;2.70;;;;;;;5.35;62.25;101881.38;4864994;29;20099;-73
2021/04/03 02:40:27;;;;;;;13.23;2.88;;;;;;;5.27;62.55;101870.66;4869139;29;20044;-74
2021/04/03 02:43:05;;;;;;;5.75;3.17;;;;;;;5.18;63.02;101868.09;4883504;29;20024;-73
2021/04/03 02:45:41;;;;;;;3.88;1.80;;;;;;;5.11;63.03;101858.19;4870496;29;20039;-73
2021/04/03 02:48:17;;;;;;;2.20;1.58;;;;;;;5.11;63.02;101874.47;4893609;29;20430;-74
2021/04/03 02:50:45;;;;;;;7.22;2.08;;;;;;;5.09;63.74;101876.53;4876475;29;20043;-74
2021/04/03 02:53:15;;;;;;;4.65;2.28;;;;;;;5.05;63.36;101876.06;4895729;29;20037;-73
2021/04/03 02:55:46;;;;;;;2.03;1.90;;;;;;;4.95;63.37;101864.72;4889997;29;20028;-74
2021/04/03 02:58:16;;;;;;;5.63;2.22;;;;;;;4.90;64.06;101868.84;4887303;29;20032;-74
2021/04/03 03:00:45;;;;;;;9.60;2.33;;;;;;;4.86;63.60;101861.28;4894265;29;20063;-74
2021/04/03 03:03:11;;;;;;;9.93;2.83;;;;;;;4.77;63.60;101857.03;4896399;29;20061;-75
2021/04/03 03:05:38;;;;;;;4.40;2.20;;;;;;;4.68;63.60;101854.44;4898177;29;20028;-74
2021/04/03 03:08:07;;;;;;;5.03;2.63;;;;;;;4.64;63.68;101857.72;4889068;29;20076;-75
2021/04/03 03:10:34;;;;;;;3.75;1.77;;;;;;;4.54;64.36;101852.59;4889996;29;20115;-76
2021/04/03 03:13:01;;;;;;;10.00;1.73;;;;;;;4.48;63.90;101845.25;4888082;29;20074;-75
2021/04/03 03:15:31;;;;;;;2.65;1.85;;;;;;;4.41;64.48;101836.19;4886399;29;20041;-75
2021/04/03 03:17:59;;;;;;;2.45;1.58;;;;;;;4.45;65.33;101849.16;4890313;29;20032;-75
2021/04/03 03:20:26;;;;;;;2.33;1.88;;;;;;;4.42;65.04;101843.31;4878956;29;20033;-75
2021/04/03 03:22:52;;;;;;;3.20;1.95;;;;;;;4.24;64.86;101825.59;4884787;29;20033;-75
2021/04/03 03:25:18;;;;;;;8.40;1.83;;;;;;;4.34;64.70;101845.09;4871492;29;20041;-74
2021/04/03 03:27:45;;;;;;;3.95;2.17;;;;;;;4.30;64.97;101846.50;4891199;29;20364;-74
2021/04/03 03:30:14;;;;;;;2.90;2.45;;;;;;;4.33;64.67;101858.81;4891679;29;20032;-74
2021/04/03 03:32:39;;;;;;;10.57;2.35;;;;;;;4.30;64.90;101851.91;4898374;29;20024;-74
2021/04/03 03:35:06;;;;;;;4.70;2.45;;;;;;;4.32;65.01;101843.59;4895297;29;20040;-74
2021/04/03 03:37:32;;;;;;;8.63;2.47;;;;;;;4.30;64.73;101837.53;4877383;29;20037;-74
2021/04/03 03:39:59;;;;;;;9.30;2.63;;;;;;;4.30;65.76;101832.97;4896383;29;20456;-74
2021/04/03 03:42:25;;;;;;;4.93;2.67;;;;;;;4.28;65.26;101829.59;4872441;29;20052;-75
2021/04/03 03:44:51;;;;;;;7.00;2.30;;;;;;;4.33;65.34;101838.00;4896077;29;20084;-74
2021/04/03 03:47:18;;;;;;;5.47;2.30;;;;;;;4.32;64.95;101841.75;4897229;29;20029;-73
2021/04/03 03:49:43;;;;;;;2.80;2.13;;;;;;;4.28;65.77;101837.72;4881422;29;20527;-74
2021/04/03 03:52:09;;;;;;;5.35;2.83;;;;;;;4.26;66.03;101839.78;4870202;29;20045;-73
2021/04/03 03:54:38;;;;;;;7.43;2.78;;;;;;;4.24;65.58;101839.13;4891429;29;20541;-74
2021/04/03 03:57:04;;;;;;;7.00;2.45;;;;;;;4.25;66.63;101845.38;4875561;29;20049;-74
2021/04/03 03:59:30;;;;;;;8.90;3.38;;;;;;;4.25;66.30;101832.69;4891609;29;20032;-73
2021/04/03 04:01:56;;;;;;;7.50;1.88;;;;;;;4.21;66.57;101831.41;4882697;29;20041;-74
2021/04/03 04:04:22;;;;;;;2.42;1.92;;;;;;;4.20;66.62;101827.00;4879816;29;20025;-75
2021/04/03 04:06:47;;;;;;;3.70;3.15;;;;;;;4.21;66.75;101828.69;4858692;29;20048;-75
2021/04/03 04:09:13;;;;;;;3.67;2.08;;;;;;;4.31;66.35;101841.94;4890749;29;20374;-74
2021/04/03 04:11:38;;;;;;;5.43;2.22;;;;;;;4.39;66.37;101832.84;4877087;29;20528;-74
2021/04/03 04:14:04;;;;;;;12.85;2.65;;;;;;;4.50;66.50;101835.91;4858919;29;20040;-74
2021/04/03 04:16:29;;;;;;;2.60;2.50;;;;;;;4.60;66.36;101835.59;4875318;29;20483;-74
2021/04/03 04:18:54;;;;;;;6.45;2.55;;;;;;;4.76;66.95;101839.94;4888277;29;20024;-73
2021/04/03 04:21:20;;;;;;;4.88;1.98;;;;;;;4.88;65.56;101838.38;4894787;29;20475;-72
2021/04/03 04:23:46;;;;;;;9.13;2.30;;;;;;;5.02;66.03;101843.94;4879391;29;20032;-73
2021/04/03 04:26:12;;;;;;;2.42;1.52;;;;;;;5.19;65.70;101848.06;4891218;29;20037;-73
2021/04/03 04:28:40;;;;;;;10.45;1.70;;;;;;;5.30;65.17;101840.41;4903836;29;20028;-75
2021/04/03 04:31:05;;;;;;;8.60;2.22;;;;;;;5.33;65.50;101837.31;4878315;29;21288;-74
2021/04/03 04:33:31;;;;;;;2.33;1.92;;;;;;;5.44;65.01;101850.34;4895820;29;20026;-75
2021/04/03 04:35:56;;;;;;;5.95;2.30;;;;;;;5.52;64.76;101854.78;4875675;29;22365;-75
2021/04/03 04:38:22;;;;;;;4.63;2.47;;;;;;;5.58;64.89;101856.72;4890957;29;20475;-74
2021/04/03 04:40:48;;;;;;;7.13;2.70;;;;;;;5.64;64.16;101853.22;4879755;29;20037;-74
2021/04/03 04:43:13;;;;;;;7.68;3.08;;;;;;;5.69;64.33;101850.72;4894505;29;20136;-73
2021/04/03 04:45:39;;;;;;;3.45;2.35;;;;;;;5.77;63.93;101864.16;4876133;29;20040;-75
2021/04/03 04:48:04;;;;;;;5.53;2.95;;;;;;;5.80;63.99;101859.34;4863742;29;20383;-75
2021/04/03 04:50:30;;;;;;;2.75;2.17;;;;;;;5.81;63.93;101863.75;4878997;29;20084;-75
2021/04/03 04:52:57;;;;;;;8.07;2.58;;;;;;;5.83;63.80;101862.53;4874895;29;20484;-75
2021/04/03 04:55:23;;;;;;;7.68;2.15;;;;;;;5.93;63.81;101863.00;4876350;29;20039;-75
2021/04/03 04:57:50;;;;;;;6.47;2.20;;;;;;;6.00;63.08;101868.50;4864308;29;20036;-76
2021/04/03 05:00:16;;;;;;;6.25;2.60;;;;;;;6.06;62.72;101873.13;4881732;29;20037;-75
2021/04/03 05:02:42;;;;;;;5.00;2.05;;;;;;;6.09;62.60;101867.31;4891768;29;20088;-74
2021/04/03 05:05:07;;;;;;;4.40;1.67;;;;;;;6.16;63.00;101871.91;4863454;29;20081;-74
2021/04/03 05:07:33;;;;;;;10.15;2.58;;;;;;;6.23;63.27;101872.78;4876723;29;20092;-74
2021/04/03 05:09:58;;;;;;;5.43;2.92;;;;;;;6.29;62.62;101871.97;4877220;29;20035;-73
2021/04/03 05:12:24;;;;;;;7.78;2.63;;;;;;;6.34;62.73;101880.38;4875839;29;20124;-74
2021/04/03 05:14:49;;;;;;;2.30;1.70;;;;;;;6.39;61.88;101883.31;4870054;29;20057;-74
2021/04/03 05:17:15;;;;;;;8.10;2.85;;;;;;;6.41;62.04;101875.81;4861142;29;20045;-74
2021/04/03 05:19:40;;;;;;;10.15;3.55;;;;;;;6.52;62.30;101876.28;4877533;29;20020;-73
2021/04/03 05:22:06;;;;;;;11.55;3.38;;;;;;;6.55;62.03;101875.84;4895179;29;20487;-74
2021/04/03 05:24:31;;;;;;;3.38;2.17;;;;;;;6.61;61.81;101885.91;4878586;29;20024;-73
2021/04/03 05:26:57;;;;;;;3.88;2.38;;;;;;;6.65;61.56;101879.03;4886514;29;20434;-73
2021/04/03 05:29:22;;;;;;;7.45;2.13;;;;;;;6.69;61.39;101880.31;4857384;29;20029;-72
2021/04/03 05:31:47;;;;;;;4.00;2.08;;;;;;;6.74;61.49;101885.94;4877601;29;20028;-73
2021/04/03 05:34:13;;;;;;;4.53;1.80;;;;;;;6.80;61.75;101878.84;4879523;29;20059;-73
2021/04/03 05:36:39;;;;;;;6.35;2.28;;;;;;;6.85;60.74;101875.50;4868788;29;20464;-73
2021/04/03 05:39:04;;;;;;;4.82;1.90;;;;;;;6.96;60.68;101885.78;4869369;29;20036;-74
2021/04/03 05:41:30;;;;;;;9.15;2.13;;;;;;;7.08;60.01;101880.59;4874024;29;20092;-74
2021/04/03 05:43:56;;;;;;;7.70;2.40;;;;;;;7.24;59.75;101884.78;4888088;29;20428;-75
2021/04/03 05:46:22;;;;;;;4.35;1.42;;;;;;;7.35;59.01;101881.44;4882817;29;20389;-74
2021/04/03 05:48:49;;;;;;;5.75;2.22;;;;;;;7.41;58.18;101888.78;4889012;29;20486;-76
2021/04/03 05:51:17;;;;;;;7.63;2.25;;;;;;;7.41;57.60;101885.22;4871607;29;20044;-77
2021/04/03 05:53:53;;;;;;;10.43;2.72;;;;;;;7.39;58.13;101882.72;4884790;29;20024;-75
2021/04/03 05:56:18;;;;;;;14.90;3.13;;;;;;;7.52;57.79;101898.22;4895737;29;20097;-76
2021/04/03 05:58:48;;;;;;;8.45;2.15;;;;;;;7.60;57.63;101902.59;4886427;29;20021;-76
2021/04/03 06:01:13;;;;;;;7.55;1.92;;;;;;;7.69;57.39;101909.50;4902154;29;20021;-76
2021/04/03 06:03:39;;;;;;;5.93;1.45;;;;;;;7.79;56.49;101909.09;4913545;29;20028;-77
2021/04/03 06:06:05;;;;;;;7.53;1.48;;;;;;;7.81;56.26;101896.94;4914964;29;20447;-76
2021/04/03 06:08:33;;;;;;;7.90;2.58;;;;;;;7.80;55.61;101895.25;4907365;29;20016;-76
2021/04/03 06:11:19;;;;;;;3.10;1.33;;;;;;;7.76;55.18;101904.06;4893569;29;20063;-76
2021/04/03 06:14:05;;;;;;;4.20;1.92;;;;;;;7.76;55.02;101910.34;4850018;29;20079;-74
2021/04/03 06:16:42;;;;;;;10.40;1.58;;;;;;;7.71;55.43;101906.56;4877512;29;20056;-74
2021/04/03 06:19:07;;;;;;;6.07;1.55;;;;;;;7.74;55.73;101911.59;4879440;29;20505;-75
2021/04/03 06:21:33;;;;;;;8.20;1.13;;;;;;;7.73;55.46;101927.09;4885648;29;20033;-74
2021/04/03 06:23:59;;;;;;;5.47;1.80;;;;;;;7.75;55.00;101919.53;4878714;29;20025;-75
2021/04/03 06:26:28;;;;;;;2.35;1.17;;;;;;;7.77;55.06;101912.03;4873783;29;20033;-75
2021/04/03 06:28:53;;;;;;;7.95;1.70;;;;;;;7.86;55.23;101932.53;4867906;29;20032;-74
2021/04/03 06:31:20;;;;;;;5.00;1.25;;;;;;;7.88;54.92;101928.78;4874570;29;20061;-72
2021/04/03 06:33:46;;;;;;;9.88;1.70;;;;;;;7.97;54.92;101932.94;4887813;29;20064;-76
2021/04/03 06:36:17;;;;;;;5.95;2.08;;;;;;;8.07;54.50;101936.06;4888522;29;20044;-74
2021/04/03 06:38:46;;;;;;;1.92;0.95;;;;;;;8.09;54.32;101944.88;4881715;29;20040;-75
2021/04/03 06:41:23;;;;;;;9.88;1.10;;;;;;;8.16;54.72;101939.41;4860699;29;20037;-77
2021/04/03 06:44:12;;;;;;;1.75;1.02;;;;;;;8.25;54.46;101946.31;4856932;29;20399;-76
2021/04/03 06:46:42;;;;;;;7.28;1.83;;;;;;;8.24;54.57;101941.09;4880887;29;20033;-77
2021/04/03 06:49:09;;;;;;;5.63;1.67;;;;;;;8.29;54.22;101935.81;4881026;29;20036;-76
2021/04/03 06:51:35;;;;;;;7.80;1.05;;;;;;;8.34;53.80;101933.31;4874429;29;20031;-78
2021/04/03 06:54:12;;;;;;;17.60;2.38;;;;;;;8.39;53.57;101941.66;4856969;29;20025;-78
2021/04/03 06:56:38;;;;;;;4.47;1.65;;;;;;;8.38;53.54;101932.66;4869083;29;20476;-77
2021/04/03 06:59:08;;;;;;;13.43;1.55;;;;;;;8.51;54.05;101955.47;4855639;29;20044;-77
2021/04/03 07:01:46;;;;;;;6.07;1.65;;;;;;;8.53;53.61;101954.22;4875383;29;20044;-78
2021/04/03 07:04:22;;;;;;;6.05;1.48;;;;;;;8.51;53.71;101950.88;4863912;29;20057;-79
2021/04/03 07:06:58;;;;;;;4.20;1.30;;;;;;;8.56;53.00;101948.34;4871429;29;20062;-78
2021/04/03 07:09:56;;;;;;;5.65;1.30;;;;;;;8.64;53.46;101960.06;4837152;29;20048;-77
2021/04/03 07:12:42;;;;;;;;;;;;;;;;;;;;;
2021/04/03 07:15:10;;;;;;;9.95;1.38;;;;;;;8.61;52.62;101944.97;4892597;29;20131;-78
2021/04/03 07:17:43;;;;;;;8.32;1.48;;;;;;;8.69;52.75;101961.09;4860862;29;20037;-79
2021/04/03 07:20:21;;;;;;;6.93;1.55;;;;;;;8.51;52.85;101948.16;4894531;29;20028;-80
2021/04/03 07:23:11;;;;;;;5.38;1.50;;;;;;;8.47;52.97;101968.72;4892019;29;20056;-75
2021/04/03 07:25:47;;;;;;;11.07;1.48;;;;;;;8.38;52.92;101968.09;4887686;29;20051;-75
2021/04/03 07:28:15;;;;;;;4.00;1.30;;;;;;;8.32;53.47;101962.63;4889254;29;20047;-75
2021/04/03 07:30:48;;;;;;;5.72;1.85;;;;;;;8.34;53.42;101976.91;4875189;29;20479;-75
2021/04/03 07:33:21;;;;;;;7.43;1.70;;;;;;;8.36;53.34;101978.34;4886375;29;20033;-76
2021/04/03 07:36:01;;;;;;;3.60;1.17;;;;;;;8.28;53.28;101955.94;4885528;29;20041;-75
2021/04/03 07:38:34;;;;;;;5.10;1.20;;;;;;;8.37;53.37;101979.22;4886386;29;20092;-76
2021/04/03 07:41:02;;;;;;;6.65;0.98;;;;;;;8.35;53.43;101979.41;4890669;29;20036;-75
2021/04/03 07:43:46;;;;;;;3.65;1.83;;;;;;;8.43;52.35;101972.06;4891452;29;20099;-75
2021/04/03 07:46:42;;;;;;;3.17;1.52;;;;;;;8.52;51.94;101979.81;4877822;29;20472;-78
2021/04/03 07:49:08;;;;;;;4.28;1.27;;;;;;;8.50;52.23;101973.75;4884587;29;20529;-77
2021/04/03 07:51:34;;;;;;;2.92;1.17;;;;;;;8.63;52.73;101977.47;4888733;29;20058;-77
2021/04/03 07:54:01;;;;;;;3.42;1.10;;;;;;;8.68;52.17;101972.22;4889529;29;20448;-78
2021/04/03 07:56:49;;;;;;;4.47;1.25;;;;;;;8.84;52.25;101982.63;4882234;29;20467;-77
2021/04/03 07:59:15;;;;;;;9.60;1.63;;;;;;;9.01;52.21;101979.41;4883055;29;20060;-76
2021/04/03 08:01:41;;;;;;;10.32;1.10;;;;;;;9.07;51.94;101971.19;4879422;29;20202;-76
2021/04/03 08:04:14;;;;;;;2.90;1.20;;;;;;;9.15;51.56;101972.81;4885154;29;20020;-76
2021/04/03 08:06:45;;;;;;;4.53;1.00;;;;;;;9.23;50.63;101964.38;4871787;29;20037;-76
2021/04/03 08:09:16;;;;;;;8.20;1.65;;;;;;;9.37;50.23;101980.69;4890890;29;20085;-75
2021/04/03 08:11:45;;;;;;;5.00;1.40;;;;;;;9.41;49.94;101987.38;4871134;29;20034;-75
2021/04/03 08:14:19;;;;;;;5.80;1.35;;;;;;;9.48;50.48;101982.72;4888974;29;20041;-75
2021/04/03 08:16:52;;;;;;;6.07;1.67;;;;;;;9.51;49.68;101970.53;4860738;29;20032;-75
2021/04/03 08:19:33;;;;;;;;;;;;;;;;;;;;;
2021/04/03 08:22:07;;;;;;;5.10;1.13;;;;;;;9.78;49.38;101976.59;4886536;29;20037;-77
2021/04/03 08:24:32;;;;;;;6.20;1.45;;;;;;;10.02;50.34;101982.31;4886759;29;20109;-76
2021/04/03 08:26:57;;;;;;;2.83;1.52;;;;;;;10.16;50.11;101994.75;4886638;29;20041;-77
2021/04/03 08:29:28;;;;;;;2.17;0.80;;;;;;;10.28;49.03;101997.63;4861951;29;20045;-75
2021/04/03 08:31:56;;;;;;;8.43;1.90;;;;;;;10.28;48.56;101973.84;4880665;29;20096;-75
2021/04/03 08:34:22;;;;;;;2.33;0.98;;;;;;;10.47;49.47;101987.56;4890442;29;20051;-76
2021/04/03 08:36:48;;;;;;;5.88;1.30;;;;;;;10.53;48.69;101994.84;4883202;29;20081;-75
2021/04/03 08:39:16;;;;;;;10.60;1.85;;;;;;;10.47;48.30;101973.88;4868584;29;20033;-76
2021/04/03 08:41:44;;;;;;;8.23;2.08;;;;;;;10.62;47.72;101984.44;4872673;29;20040;-75
2021/04/03 08:44:23;;;;;;;8.63;2.50;;;;;;;10.73;47.78;101993.78;4890762;29;20036;-75
2021/04/03 08:46:52;;;;;;;8.13;1.75;;;;;;;10.76;46.63;101985.97;4874260;29;20084;-76
2021/04/03 08:49:33;;;;;;;5.80;1.75;;;;;;;10.82;47.00;101981.47;4872512;29;20064;-73
2021/04/03 08:52:27;;;;;;;5.78;1.15;;;;;;;11.02;46.36;101996.78;4869926;29;20752;-78
2021/04/03 08:54:53;;;;;;;5.88;1.50;;;;;;;11.03;45.16;101998.47;4869762;29;20051;-75
2021/04/03 08:57:27;;;;;;;6.07;1.48;;;;;;;11.03;45.83;102003.94;4879797;29;20037;-74
2021/04/03 09:00:00;;;;;;;8.80;1.38;;;;;;;11.04;45.19;102005.59;4876275;29;20039;-74
2021/04/03 09:02:29;;;;;;;6.72;1.42;;;;;;;10.97;45.75;101989.28;4885276;29;20037;-77
2021/04/03 09:04:55;;;;;;;5.15;1.20;;;;;;;11.05;45.64;101988.13;4890249;29;20048;-77
2021/04/03 09:07:41;;;;;;;9.35;1.38;;;;;;;11.25;45.46;101996.06;4874942;29;20116;-78
2021/04/03 09:10:11;;;;;;;;;;;;;;;11.52;45.00;102001.97;4878419;29;20033;-77
2021/04/03 09:12:38;;;;;;;7.95;1.27;;;;;;;11.56;44.79;101996.88;4886703;29;20006;-75
2021/04/03 09:15:08;;;;;;;5.03;1.23;;;;;;;11.64;45.00;101986.41;4888400;29;20080;-79
2021/04/03 09:17:45;;;;;;;2.95;1.23;;;;;;;11.74;44.69;101998.69;4867303;29;20065;-77
2021/04/03 09:20:17;;;;;;;8.73;1.77;;;;;;;11.56;43.90;101975.78;4865870;29;20460;-77
2021/04/03 09:22:45;;;;;;;6.97;1.40;;;;;;;11.56;44.29;101997.72;4887808;29;20375;-75
2021/04/03 09:25:15;;;;;;;8.35;1.20;;;;;;;11.55;44.11;101996.06;4874275;29;20032;-74
2021/04/03 09:28:05;;;;;;;5.38;1.85;;;;;;;11.59;44.24;101997.22;4870367;29;20033;-77
2021/04/03 09:30:46;;;;;;;5.07;1.20;;;;;;;11.65;44.08;102004.53;4872196;29;20768;-74
2021/04/03 09:33:12;;;;;;;3.30;1.80;;;;;;;11.72;44.46;102003.59;4892686;29;20028;-75
2021/04/03 09:35:41;;;;;;;2.45;0.80;;;;;;;11.78;44.30;102005.38;4870895;29;20033;-73
2021/04/03 09:38:09;;;;;;;3.58;0.88;;;;;;;11.90;44.34;102000.78;4881491;29;20040;-74
2021/04/03 09:40:42;;;;;;;2.78;1.25;;;;;;;12.04;43.85;102004.97;4889512;29;20116;-74
2021/04/03 09:43:08;;;;;;;8.90;1.60;;;;;;;12.12;43.24;102001.06;4871132;29;20036;-75
2021/04/03 09:45:40;;;;;;;4.05;1.42;;;;;;;12.15;43.04;101999.72;4873826;29;20044;-75
2021/04/03 09:48:08;;;;;;;3.75;1.30;;;;;;;12.15;43.20;102003.31;4863065;29;20553;-73
2021/04/03 09:50:34;;;;;;;4.95;1.38;;;;;;;12.18;42.75;102000.09;4873132;29;20448;-75
2021/04/03 09:53:11;;;;;;;5.95;1.10;;;;;;;12.26;43.05;102007.13;4862990;29;20506;-74
2021/04/03 09:55:37;;;;;;;3.45;1.50;;;;;;;12.27;43.36;102003.31;4875381;29;20032;-73
2021/04/03 09:58:03;;;;;;;13.38;2.47;;;;;;;12.36;42.00;102004.63;4867869;29;20040;-72
2021/04/03 10:00:35;;;;;;;8.93;1.42;;;;;;;12.36;41.91;102007.34;4880924;29;20087;-74
2021/04/03 10:03:08;;;;;;;6.75;1.50;;;;;;;12.36;42.07;102001.03;4871404;29;20032;-74
2021/04/03 10:05:33;;;;;;;6.13;2.03;;;;;;;12.38;42.10;101998.88;4877211;29;20071;-74
2021/04/03 10:08:02;;;;;;;4.75;1.67;;;;;;;12.39;41.58;102006.88;4863391;29;20052;-74
2021/04/03 10:10:28;;;;;;;8.10;1.25;;;;;;;12.53;42.03;102006.66;4885752;29;20501;-73
2021/04/03 10:12:53;;;;;;;7.13;1.80;;;;;;;12.75;41.76;102009.59;4855691;29;20132;-73
2021/04/03 10:15:21;;;;;;;14.30;1.90;;;;;;;12.85;40.93;102014.44;4856117;29;20048;-73
2021/04/03 10:17:47;;;;;;;5.45;2.03;;;;;;;12.96;41.24;102010.84;4885008;29;20113;-76
2021/04/03 10:20:19;;;;;;;2.67;1.33;;;;;;;13.02;40.89;102009.03;4873906;29;20029;-74
2021/04/03 10:22:45;;;;;;;6.07;1.80;;;;;;;13.22;40.18;102014.09;4874437;29;20043;-74
2021/04/03 10:25:21;;;;;;;2.65;0.95;;;;;;;13.31;40.26;102007.13;4873537;29;20052;-77
2021/04/03 10:27:51;;;;;;;;;;;;;;;13.68;39.92;102027.88;4877579;29;20040;-74
2021/04/03 10:30:20;;;;;;;8.95;1.33;;;;;;;13.54;39.91;102008.13;4889873;29;19942;-74
2021/04/03 10:32:47;;;;;;;8.30;1.40;;;;;;;13.69;39.44;102027.63;4911792;29;20080;-73
2021/04/03 10:35:15;;;;;;;4.10;1.55;;;;;;;13.74;39.58;102026.88;4879174;29;20044;-74
2021/04/03 10:37:41;;;;;;;3.72;1.00;;;;;;;13.81;38.92;102027.56;4869275;29;20060;-75
2021/04/03 10:40:09;;;;;;;5.63;1.50;;;;;;;14.04;39.63;102029.31;4885694;29;20063;-75
2021/04/03 10:42:34;;;;;;;6.85;1.52;;;;;;;14.37;38.65;102035.03;4885528;29;20056;-77
2021/04/03 10:45:00;;;;;;;4.68;1.48;;;;;;;14.56;37.56;102032.84;4866946;29;20483;-74
2021/04/03 10:47:27;;;;;;;8.63;2.25;;;;;;;14.57;37.65;102023.50;4881732;29;20647;-72
2021/04/03 10:50:00;;;;;;;6.63;2.03;;;;;;;14.79;38.31;102029.91;4872984;29;20387;-74
2021/04/03 10:52:25;;;;;;;5.22;1.63;;;;;;;15.24;37.49;102027.13;4879343;29;20452;-74
2021/04/03 10:54:51;;;;;;;6.65;1.38;;;;;;;15.48;36.25;102027.66;4868758;29;20060;-75
2021/04/03 10:57:26;;;;;;;5.30;1.35;;;;;;;15.65;36.51;102024.78;4892955;29;20032;-73
2021/04/03 10:59:51;;;;;;;2.72;1.20;;;;;;;15.96;36.01;102033.34;4865203;29;20101;-75
2021/04/03 11:02:22;;;;;;;3.13;1.48;;;;;;;16.11;35.06;102024.41;4891684;29;20084;-74
2021/04/03 11:04:49;;;;;;;4.22;1.23;;;;;;;16.57;35.31;102039.34;4886325;29;20149;-75
2021/04/03 11:07:18;;;;;;;5.45;0.93;;;;;;;16.83;34.15;102030.34;4887262;29;20107;-75
2021/04/03 11:09:45;;;;;;;4.60;1.13;;;;;;;16.93;33.74;102031.22;4895304;29;20048;-78
2021/04/03 11:12:23;;;;;;;;;;;;;;;;;;;;;
2021/04/03 11:14:49;;;;;;;5.80;1.42;;;;;;;16.62;32.85;102045.97;4885370;29;20498;-77
2021/04/03 11:17:14;;;;;;;2.35;1.10;;;;;;;16.33;33.26;102043.59;4841828;29;20053;-77
2021/04/03 11:19:49;;;;;;;;;;;;;;;;;;;;;
2021/04/03 11:22:18;;;;;;;5.13;1.45;;;;;;;15.86;33.73;102040.47;4869302;29;20028;-76
2021/04/03 11:24:43;;;;;;;3.55;1.10;;;;;;;15.73;34.30;102057.41;4856384;29;20033;-79
2021/04/03 11:27:09;;;;;;;10.23;1.38;;;;;;;15.78;34.50;102040.06;4869235;29;20029;-77
2021/04/03 11:29:39;;;;;;;3.97;1.50;;;;;;;16.02;34.23;102038.66;4880715;29;20056;-77
2021/04/03 11:32:05;;;;;;;4.38;0.93;;;;;;;16.30;34.76;102041.38;4892317;29;20032;-77
2021/04/03 11:34:30;;;;;;;4.00;1.63;;;;;;;16.57;34.07;102053.13;4889479;29;20041;-79
2021/04/03 11:36:56;;;;;;;1.25;0.60;;;;;;;16.67;33.76;102040.47;4873336;29;20069;-77
2021/04/03 11:39:21;;;;;;;2.80;1.52;;;;;;;16.89;33.57;102046.72;4857953;29;20519;-78
2021/04/03 11:41:54;;;;;;;3.42;1.00;;;;;;;17.27;33.41;102046.56;4869237;29;20482;-79
2021/04/03 11:44:24;;;;;;;2.90;0.80;;;;;;;17.70;33.61;102043.63;4874201;29;20051;-77
2021/04/03 11:46:51;;;;;;;5.85;0.73;;;;;;;18.26;33.27;102032.56;4844296;29;20103;-76
2021/04/03 11:49:22;;;;;;;5.90;1.00;;;;;;;18.57;31.57;102023.34;4864924;29;20433;-76
2021/04/03 11:51:48;;;;;;;4.68;1.20;;;;;;;18.61;31.04;102033.59;4851826;29;20035;-76
2021/04/03 11:54:23;;;;;;;3.17;0.90;;;;;;;19.20;31.72;102031.16;4877479;29;20437;-75
2021/04/03 11:56:52;;;;;;;;;;;;;;;19.80;29.11;102044.13;4891818;29;20043;-76
2021/04/03 11:59:20;;;;;;;8.52;1.70;;;;;;;19.44;28.95;102030.50;4874678;29;19998;-74
2021/04/03 12:01:57;;;;;;;3.53;1.35;;;;;;;19.02;28.99;102040.97;4852499;29;20106;-76
2021/04/03 12:04:42;;;;;;;;;;;;;;;;;;;;;
2021/04/03 12:07:45;;;;;;;;;;;;;;;;;;;;;